Spofford, NH (03462)

2:15 PM EDT on September 01, 2015 (GMT -0400)
APRSWXNET | | Change Station
CLOSE
Current Station
Personal Weather Station
Location: Spofford, NH
Elevation: 1099 ft
Nearby Weather Stations

Elev 1099 ft 42.91 °N, 72.39 °W | Updated 27 minutes ago

Clear
Clear
82 °F
Feels Like 82 °F
N
1
Wind Variable Wind from North
Gusts 0.0 mph

Today
High -- | Low -- °F
--% Chance of Precip.
Yesterday
High -- | Low -- °F
Precip. -- in
6:13 AM 7:24 PM
Waning Gibbous, 87% visible
Pressure 30.06 in
Visibility 7.0 miles
Clouds Clear
Heat Index 82 °F
Dew Point 57 °F
Humidity 42%
Rainfall in
Snow Depth Not available.
UV 8 out of 12
Pollen 7.90 out of 12
Air Quality Not available.
Flu Activity Not available.
METAR KEEN 011755Z AUTO 00000KT 7SM CLR 27/13 A3006 RMK AO1 10270 20150 57010
Pressure 30.06 in
Visibility 7.0 miles
Clouds Clear
Heat Index 82 °F
Dew Point 57 °F
Humidity 42%
Rainfall in
Snow Depth Not available.
UV 8 out of 12
Pollen 7.90 out of 12
Air Quality Not available.
Flu Activity Not available.
METAR KEEN 011755Z AUTO 00000KT 7SM CLR 27/13 A3006 RMK AO1 10270 20150 57010

10-Day Weather Forecast

×

Almanac

Astronomy

Sep. 01, 2015 Rise Set
Actual Time
Civil Twilight
Nautical Twilight
Astronomical Twilight
Moon
Length of Visible Light
Length of Day
Tomorrow will be .
, % of the Moon is Illuminated

Today's Extremes

State Highs State Lows

Community

WunderPhotos

Upload Photos

1,851,592 photos uploaded!

WunderBlogs® & News

Nearby

Air Quality

  Air Quality AQ Index Pollutant
Not available.

Snow Depth

Station Depth Elevation

Earthquake Activity

City Distance Mag. Time & Date
Minimum magnitude displayed is 2.5.

Coastal Water Temperatures

Place Temperature

Stations

Nearby Weather Stations

Station Location Temp. Windchill Dew Point Humidity Wind Precip. Elev Updated Type